createdAt,value
2018-09-22T00:01:41.506Z,11.80
2018-09-22T00:04:09.734Z,11.80
2018-09-22T00:06:37.960Z,11.80
2018-09-22T00:09:08.293Z,11.70
2018-09-22T00:11:36.532Z,11.70
2018-09-22T00:14:04.791Z,11.80
2018-09-22T00:16:33.025Z,11.80
2018-09-22T00:19:01.257Z,11.70
2018-09-22T00:21:29.632Z,11.70
2018-09-22T00:23:57.872Z,11.70
2018-09-22T00:26:38.169Z,11.70
2018-09-22T00:29:06.545Z,11.60
2018-09-22T00:31:34.788Z,11.50
2018-09-22T00:34:03.017Z,11.40
2018-09-22T00:36:31.477Z,11.30
2018-09-22T00:38:59.913Z,11.10
2018-09-22T00:41:28.351Z,11.00
2018-09-22T00:43:56.960Z,10.90
2018-09-22T00:46:25.200Z,10.90
2018-09-22T00:48:53.438Z,10.80
2018-09-22T00:51:21.678Z,10.70
2018-09-22T00:53:49.908Z,10.60
2018-09-22T00:56:18.136Z,10.50
2018-09-22T00:58:46.365Z,10.60
2018-09-22T01:01:14.610Z,10.40
2018-09-22T01:03:42.848Z,10.30
2018-09-22T01:06:11.094Z,10.20
2018-09-22T01:08:39.556Z,10.00
2018-09-22T01:11:07.821Z,10.00
2018-09-22T01:13:36.047Z,9.80
2018-09-22T01:16:04.424Z,9.80
2018-09-22T01:18:32.822Z,9.70
2018-09-22T01:21:01.028Z,9.60
2018-09-22T01:23:29.333Z,9.60
2018-09-22T01:25:57.545Z,9.50
2018-09-22T01:28:25.756Z,9.40
2018-09-22T01:30:53.971Z,9.40
2018-09-22T01:33:22.188Z,9.30
2018-09-22T01:35:50.441Z,9.30
2018-09-22T01:38:18.689Z,9.20
2018-09-22T01:40:46.930Z,9.20
2018-09-22T01:43:15.187Z,9.20
2018-09-22T01:45:43.437Z,9.10
2018-09-22T01:48:11.720Z,9.10
2018-09-22T01:50:39.953Z,9.00
2018-09-22T01:53:08.205Z,9.00
2018-09-22T01:55:36.436Z,8.90
2018-09-22T01:58:04.679Z,9.00
2018-09-22T02:00:32.933Z,9.00
2018-09-22T02:03:01.178Z,8.90
2018-09-22T02:05:29.400Z,8.90
2018-09-22T02:07:57.635Z,8.90
2018-09-22T02:10:25.884Z,8.90
2018-09-22T02:12:54.112Z,8.80
2018-09-22T02:15:22.359Z,8.90
2018-09-22T02:17:50.620Z,8.90
2018-09-22T02:20:18.848Z,8.90
2018-09-22T02:22:47.084Z,8.80
2018-09-22T02:25:15.313Z,8.80
2018-09-22T02:27:43.540Z,8.70
2018-09-22T02:30:11.770Z,8.60
2018-09-22T02:32:39.997Z,8.70
2018-09-22T02:35:08.416Z,8.60
2018-09-22T02:37:36.665Z,8.60
2018-09-22T02:40:04.999Z,8.60
2018-09-22T02:42:33.233Z,8.50
2018-09-22T02:45:01.490Z,8.50
2018-09-22T02:47:29.729Z,8.50
2018-09-22T02:49:57.959Z,8.40
2018-09-22T02:52:26.287Z,8.40
2018-09-22T02:54:54.531Z,8.30
2018-09-22T02:57:22.754Z,8.30
2018-09-22T02:59:50.981Z,8.20
2018-09-22T03:02:19.232Z,8.20
2018-09-22T03:04:47.461Z,8.10
2018-09-22T03:07:15.697Z,8.10
2018-09-22T03:09:43.937Z,8.10
2018-09-22T03:12:12.176Z,8.10
2018-09-22T03:14:40.429Z,8.10
2018-09-22T03:17:08.798Z,8.10
2018-09-22T03:19:37.039Z,8.00
2018-09-22T03:22:05.481Z,7.90
2018-09-22T03:24:33.717Z,7.90
2018-09-22T03:27:01.966Z,7.90
2018-09-22T03:29:30.195Z,7.90
2018-09-22T03:31:58.436Z,7.90
2018-09-22T03:34:26.665Z,7.90
2018-09-22T03:36:54.910Z,7.90
2018-09-22T03:39:23.137Z,7.90
2018-09-22T03:41:51.437Z,7.90
2018-09-22T03:44:19.683Z,7.90
2018-09-22T03:46:47.918Z,7.90
2018-09-22T03:49:16.154Z,7.90
2018-09-22T03:51:44.393Z,7.90
2018-09-22T03:54:12.626Z,7.90
2018-09-22T03:56:40.860Z,7.90
2018-09-22T03:59:09.272Z,7.90
2018-09-22T04:01:37.513Z,7.90
2018-09-22T04:04:05.780Z,7.90
2018-09-22T04:06:34.018Z,7.90
2018-09-22T04:09:02.288Z,8.00
2018-09-22T04:11:31.041Z,8.00
2018-09-22T04:13:59.293Z,8.10
2018-09-22T04:16:27.522Z,8.10
2018-09-22T04:18:55.753Z,8.20
2018-09-22T04:21:24.453Z,8.20
2018-09-22T04:23:52.689Z,8.20
2018-09-22T04:26:20.925Z,8.30
2018-09-22T04:28:49.179Z,8.30
2018-09-22T04:31:17.421Z,8.40
2018-09-22T04:33:45.701Z,8.30
2018-09-22T04:36:13.937Z,8.30
2018-09-22T04:38:42.286Z,8.30
2018-09-22T04:41:10.589Z,8.30
2018-09-22T04:43:38.817Z,8.30
2018-09-22T04:46:07.162Z,8.20
2018-09-22T04:48:35.409Z,8.20
2018-09-22T04:51:03.637Z,8.20
2018-09-22T04:53:31.871Z,8.20
2018-09-22T04:56:00.102Z,8.20
2018-09-22T04:58:28.326Z,8.20
2018-09-22T05:00:56.566Z,8.20
2018-09-22T05:03:24.801Z,8.20
2018-09-22T05:05:53.047Z,8.30
2018-09-22T05:08:21.285Z,8.30
2018-09-22T05:10:49.509Z,8.30
2018-09-22T05:13:17.751Z,8.40
2018-09-22T05:15:45.981Z,8.50
2018-09-22T05:18:14.211Z,8.50
2018-09-22T05:20:42.450Z,8.60
2018-09-22T05:23:10.694Z,8.60
2018-09-22T05:25:38.980Z,8.60
2018-09-22T05:28:07.231Z,8.70
2018-09-22T05:30:35.469Z,8.80
2018-09-22T05:33:03.716Z,8.90
2018-09-22T05:35:32.010Z,9.10
2018-09-22T05:38:00.213Z,9.10
2018-09-22T05:40:28.500Z,9.30
2018-09-22T05:42:56.862Z,9.30
2018-09-22T05:45:25.097Z,9.30
2018-09-22T05:47:53.330Z,9.40
2018-09-22T05:50:21.613Z,9.40
2018-09-22T05:52:49.909Z,9.50
2018-09-22T05:55:18.201Z,9.60
2018-09-22T05:57:46.890Z,9.70
2018-09-22T06:00:15.173Z,9.80
2018-09-22T06:02:43.575Z,9.90
2018-09-22T06:05:11.982Z,10.00
2018-09-22T06:07:40.907Z,10.20
2018-09-22T06:10:10.827Z,10.20
2018-09-22T06:12:39.201Z,10.40
2018-09-22T06:15:07.585Z,10.50
2018-09-22T06:17:36.286Z,10.60
2018-09-22T06:20:04.781Z,10.70
2018-09-22T06:22:33.189Z,10.80
2018-09-22T06:25:03.865Z,10.90
2018-09-22T06:27:32.125Z,11.00
2018-09-22T06:30:00.365Z,11.20
2018-09-22T06:32:28.623Z,11.10
2018-09-22T06:34:56.858Z,11.20
2018-09-22T06:37:25.160Z,11.30
2018-09-22T06:39:53.374Z,11.40
2018-09-22T06:42:21.694Z,11.40
2018-09-22T06:44:50.112Z,11.40
2018-09-22T06:47:18.379Z,11.60
2018-09-22T06:49:46.625Z,11.70
2018-09-22T06:52:14.910Z,11.80
2018-09-22T06:54:43.234Z,11.80
2018-09-22T06:57:11.481Z,11.90
2018-09-22T06:59:39.744Z,12.10
2018-09-22T07:02:08.063Z,12.30
2018-09-22T07:04:36.568Z,12.40
2018-09-22T07:07:04.916Z,12.70
2018-09-22T07:09:33.268Z,13.00
2018-09-22T07:12:01.502Z,13.10
2018-09-22T07:14:29.763Z,13.20
2018-09-22T07:16:58.023Z,13.40
2018-09-22T07:19:26.695Z,13.60
2018-09-22T07:22:00.447Z,13.80
2018-09-22T07:24:29.175Z,13.80
2018-09-22T07:26:57.430Z,13.70
2018-09-22T07:29:25.770Z,13.80
2018-09-22T07:31:54.014Z,13.90
2018-09-22T07:34:22.315Z,14.00
2018-09-22T07:36:50.584Z,14.10
2018-09-22T07:39:18.916Z,14.30
2018-09-22T07:41:47.241Z,14.50
2018-09-22T07:44:15.544Z,14.70
2018-09-22T07:46:43.806Z,14.90
2018-09-22T07:49:12.125Z,14.50
2018-09-22T07:51:40.402Z,14.90
2018-09-22T07:54:08.772Z,15.50
2018-09-22T07:56:37.143Z,16.90
2018-09-22T07:59:05.565Z,17.90
2018-09-22T08:01:33.885Z,18.40
2018-09-22T08:04:02.137Z,18.90
2018-09-22T08:06:30.534Z,18.90
2018-09-22T08:08:58.909Z,18.40
2018-09-22T08:11:27.247Z,18.00
2018-09-22T08:13:55.584Z,18.40
2018-09-22T08:16:24.054Z,18.80
2018-09-22T08:18:52.430Z,19.00
2018-09-22T08:21:20.819Z,18.80
2018-09-22T08:23:49.235Z,18.60
2018-09-22T08:26:17.559Z,19.40
2018-09-22T08:28:45.845Z,19.20
2018-09-22T08:31:14.171Z,19.20
2018-09-22T08:33:42.478Z,18.70
2018-09-22T08:36:10.966Z,17.90
2018-09-22T08:38:39.230Z,17.20
2018-09-22T08:41:07.822Z,17.00
2018-09-22T08:43:36.090Z,17.00
2018-09-22T08:46:04.395Z,16.70
2018-09-22T08:48:32.670Z,16.60
2018-09-22T08:51:00.926Z,16.60
2018-09-22T08:53:29.198Z,16.70
2018-09-22T08:55:57.451Z,17.20
2018-09-22T08:58:25.705Z,17.60
2018-09-22T09:00:54.058Z,18.10
2018-09-22T09:03:22.321Z,18.30
2018-09-22T09:05:50.656Z,18.60
2018-09-22T09:08:18.906Z,19.00
2018-09-22T09:10:47.545Z,19.20
2018-09-22T09:13:15.829Z,19.50
2018-09-22T09:15:44.083Z,19.80
2018-09-22T09:18:12.341Z,20.80
2018-09-22T09:20:40.579Z,20.80
2018-09-22T09:23:08.870Z,21.50
2018-09-22T09:25:37.159Z,22.20
2018-09-22T09:28:05.432Z,22.70
2018-09-22T09:30:33.710Z,22.60
2018-09-22T09:33:01.971Z,22.10
2018-09-22T09:35:30.249Z,22.20
2018-09-22T09:37:58.511Z,20.90
2018-09-22T09:40:27.067Z,20.70
2018-09-22T09:42:55.342Z,20.90
2018-09-22T09:45:23.621Z,20.40
2018-09-22T09:47:51.958Z,20.00
2018-09-22T09:50:20.342Z,20.10
2018-09-22T09:52:48.738Z,20.10
2018-09-22T09:55:17.054Z,19.70
2018-09-22T09:57:45.347Z,19.70
2018-09-22T10:00:13.898Z,20.00
2018-09-22T10:02:42.188Z,20.20
2018-09-22T10:05:10.512Z,19.90
2018-09-22T10:07:38.766Z,20.10
2018-09-22T10:10:07.463Z,20.10
2018-09-22T10:12:35.722Z,20.60
2018-09-22T10:15:05.010Z,21.60
2018-09-22T10:17:33.448Z,22.20
2018-09-22T10:20:01.801Z,22.30
2018-09-22T10:22:30.505Z,22.60
2018-09-22T10:24:58.860Z,22.30
2018-09-22T10:27:27.337Z,22.00
2018-09-22T10:30:04.308Z,21.60
2018-09-22T10:32:32.743Z,21.30
2018-09-22T10:35:01.723Z,21.00
2018-09-22T10:37:30.123Z,20.70
2018-09-22T10:39:58.394Z,20.90
2018-09-22T10:42:26.658Z,20.50
2018-09-22T10:44:54.914Z,20.40
2018-09-22T10:47:23.163Z,19.50
2018-09-22T10:49:51.580Z,19.20
2018-09-22T10:52:19.858Z,19.80
2018-09-22T10:54:49.751Z,20.70
2018-09-22T10:57:19.768Z,21.60
2018-09-22T10:59:48.270Z,22.20
2018-09-22T11:02:16.616Z,23.60
2018-09-22T11:04:44.889Z,24.60
2018-09-22T11:07:13.415Z,24.30
2018-09-22T11:09:41.653Z,23.70
2018-09-22T11:12:09.922Z,22.50
2018-09-22T11:14:38.189Z,22.00
2018-09-22T11:17:06.610Z,21.70
2018-09-22T11:19:34.902Z,20.80
2018-09-22T11:22:03.227Z,20.40
2018-09-22T11:24:31.458Z,19.90
2018-09-22T11:26:59.795Z,19.40
2018-09-22T11:29:28.198Z,18.90
2018-09-22T11:31:56.451Z,18.50
2018-09-22T11:34:24.893Z,18.30
2018-09-22T11:36:53.149Z,18.20
2018-09-22T11:39:21.441Z,18.10
2018-09-22T11:41:49.685Z,18.10
2018-09-22T11:44:17.934Z,18.00
2018-09-22T11:46:46.254Z,18.70
2018-09-22T11:49:14.518Z,19.30
2018-09-22T11:51:42.781Z,19.10
2018-09-22T11:54:11.075Z,18.80
2018-09-22T11:56:39.335Z,19.30
2018-09-22T11:59:07.803Z,20.00
2018-09-22T12:01:36.045Z,19.80
2018-09-22T12:04:04.309Z,19.80
2018-09-22T12:06:32.777Z,19.70
2018-09-22T12:09:01.651Z,19.10
2018-09-22T12:11:29.971Z,19.30
2018-09-22T12:14:00.352Z,19.80
2018-09-22T12:16:28.673Z,20.60
2018-09-22T12:18:56.987Z,20.70
2018-09-22T12:21:25.298Z,20.50
2018-09-22T12:23:53.780Z,20.20
2018-09-22T12:26:22.025Z,19.80
2018-09-22T12:28:50.357Z,19.60
2018-09-22T12:33:59.062Z,19.00
2018-09-22T12:36:27.338Z,18.80
2018-09-22T12:38:55.867Z,18.60
2018-09-22T12:41:24.146Z,18.80
2018-09-22T12:43:52.452Z,19.20
2018-09-22T12:46:20.723Z,19.40
2018-09-22T12:48:49.160Z,19.90
2018-09-22T12:51:17.787Z,19.70
2018-09-22T12:53:46.083Z,19.50
2018-09-22T12:56:15.027Z,19.30
2018-09-22T12:58:43.303Z,19.00
2018-09-22T13:01:11.877Z,18.80
2018-09-22T13:03:40.168Z,18.50
2018-09-22T13:06:08.463Z,18.20
2018-09-22T13:08:37.126Z,18.20
2018-09-22T13:11:05.513Z,18.10
2018-09-22T13:13:33.866Z,18.30
2018-09-22T13:16:02.097Z,18.50
2018-09-22T13:18:30.892Z,18.70
2018-09-22T13:20:59.716Z,18.70
2018-09-22T13:23:28.245Z,18.80
2018-09-22T13:25:56.697Z,18.60
2018-09-22T13:28:25.061Z,18.80
2018-09-22T13:30:53.481Z,18.60
2018-09-22T13:33:21.758Z,18.70
2018-09-22T13:35:50.029Z,18.70
2018-09-22T13:38:18.313Z,18.80
2018-09-22T13:40:46.577Z,18.70
2018-09-22T13:43:15.010Z,18.70
2018-09-22T13:45:43.301Z,18.70
2018-09-22T13:48:11.610Z,18.50
2018-09-22T13:50:39.914Z,18.50
2018-09-22T13:53:08.153Z,18.60
2018-09-22T13:55:36.462Z,18.70
2018-09-22T13:58:04.838Z,18.70
2018-09-22T14:00:33.097Z,18.50
2018-09-22T14:03:01.435Z,18.40
2018-09-22T14:05:29.753Z,18.20
2018-09-22T14:07:58.058Z,18.20
2018-09-22T14:10:26.346Z,18.20
2018-09-22T14:12:54.706Z,18.10
2018-09-22T14:15:23.093Z,18.10
2018-09-22T14:17:51.357Z,17.90
2018-09-22T14:20:19.638Z,17.80
2018-09-22T14:22:47.910Z,17.80
2018-09-22T14:25:16.195Z,17.80
2018-09-22T14:27:44.456Z,17.80
2018-09-22T14:30:12.756Z,17.80
2018-09-22T14:32:41.014Z,17.80
2018-09-22T14:35:09.387Z,17.90
2018-09-22T14:37:37.665Z,17.90
2018-09-22T14:40:06.061Z,17.90
2018-09-22T14:42:34.319Z,17.90
2018-09-22T14:45:02.586Z,17.70
2018-09-22T14:47:30.910Z,17.50
2018-09-22T14:49:59.191Z,17.40
2018-09-22T14:52:27.467Z,17.40
2018-09-22T14:54:56.014Z,17.30
2018-09-22T14:57:24.997Z,17.40
2018-09-22T14:59:53.291Z,17.40
2018-09-22T15:02:21.582Z,17.40
2018-09-22T15:04:49.833Z,17.40
2018-09-22T15:07:18.118Z,17.50
2018-09-22T15:09:46.634Z,17.70
2018-09-22T15:12:14.886Z,17.60
2018-09-22T15:14:43.225Z,17.70
2018-09-22T15:17:11.539Z,17.70
2018-09-22T15:19:39.817Z,17.70
2018-09-22T15:22:08.086Z,17.60
2018-09-22T15:24:36.709Z,17.60
2018-09-22T15:27:04.981Z,17.40
2018-09-22T15:29:33.442Z,17.30
2018-09-22T15:32:01.860Z,17.30
2018-09-22T15:34:30.134Z,17.30
2018-09-22T15:36:58.515Z,17.30
2018-09-22T15:39:26.741Z,17.20
2018-09-22T15:41:55.129Z,17.20
2018-09-22T15:44:23.414Z,17.10
2018-09-22T15:46:51.758Z,17.10
2018-09-22T15:49:20.045Z,17.10
2018-09-22T15:51:48.330Z,17.10
2018-09-22T15:54:16.620Z,17.10
2018-09-22T15:56:44.926Z,17.10
2018-09-22T15:59:13.294Z,17.00
2018-09-22T16:01:41.654Z,16.90
2018-09-22T16:04:09.933Z,16.90
2018-09-22T16:06:38.233Z,16.80
2018-09-22T16:09:08.082Z,16.90
2018-09-22T16:11:36.790Z,16.80
2018-09-22T16:14:05.099Z,16.70
2018-09-22T16:16:33.391Z,16.80
2018-09-22T16:19:02.257Z,16.80
2018-09-22T16:21:30.790Z,16.70
2018-09-22T16:23:59.126Z,16.60
2018-09-22T16:26:27.448Z,16.50
2018-09-22T16:28:55.695Z,16.50
2018-09-22T16:31:24.137Z,16.40
2018-09-22T16:33:53.373Z,16.30
2018-09-22T16:36:21.760Z,16.20
2018-09-22T16:38:50.229Z,16.10
2018-09-22T16:41:18.579Z,16.10
2018-09-22T16:43:46.879Z,16.00
2018-09-22T16:46:15.124Z,16.10
2018-09-22T16:48:43.393Z,16.00
2018-09-22T16:51:11.740Z,16.00
2018-09-22T16:53:39.998Z,15.90
2018-09-22T16:56:08.270Z,15.80
2018-09-22T16:58:36.647Z,15.80
2018-09-22T17:01:04.911Z,15.80
2018-09-22T17:03:33.159Z,15.60
2018-09-22T17:06:01.431Z,15.60
2018-09-22T17:08:30.729Z,15.50
2018-09-22T17:10:59.111Z,15.40
2018-09-22T17:13:27.460Z,15.40
2018-09-22T17:15:55.820Z,15.30
2018-09-22T17:18:24.081Z,15.20
2018-09-22T17:20:52.404Z,15.30
2018-09-22T17:23:20.675Z,15.30
2018-09-22T17:25:48.938Z,15.20
2018-09-22T17:28:17.213Z,15.20
2018-09-22T17:30:45.626Z,15.10
2018-09-22T17:33:14.234Z,15.10
2018-09-22T17:35:42.502Z,14.90
2018-09-22T17:38:11.030Z,14.90
2018-09-22T17:40:39.309Z,14.80
2018-09-22T17:43:07.632Z,14.70
2018-09-22T17:45:35.934Z,14.80
2018-09-22T17:48:04.203Z,14.80
2018-09-22T17:50:32.513Z,14.80
2018-09-22T17:53:00.830Z,14.70
2018-09-22T17:55:30.131Z,14.70
2018-09-22T17:57:58.405Z,14.60
2018-09-22T18:00:26.731Z,14.50
2018-09-22T18:02:55.030Z,14.50
2018-09-22T18:05:23.321Z,14.50
2018-09-22T18:07:51.590Z,14.40
2018-09-22T18:10:20.701Z,14.40
2018-09-22T18:12:48.987Z,14.30
2018-09-22T18:15:17.261Z,14.30
2018-09-22T18:17:45.524Z,14.30
2018-09-22T18:20:13.814Z,14.30
2018-09-22T18:22:42.134Z,14.30
2018-09-22T18:25:10.487Z,14.20
2018-09-22T18:27:38.750Z,14.10
2018-09-22T18:30:07.975Z,14.10
2018-09-22T18:32:36.773Z,14.10
2018-09-22T18:35:05.347Z,14.10
2018-09-22T18:37:39.472Z,14.00
2018-09-22T18:40:07.787Z,14.10
2018-09-22T18:42:36.123Z,14.10
2018-09-22T18:45:04.612Z,14.10
2018-09-22T18:47:32.916Z,14.20
2018-09-22T18:50:01.176Z,14.30
2018-09-22T18:52:29.455Z,14.30
2018-09-22T18:54:57.801Z,14.30
2018-09-22T18:57:26.104Z,14.30
2018-09-22T18:59:54.385Z,14.30
2018-09-22T19:02:22.781Z,14.30
2018-09-22T19:04:51.132Z,14.30
2018-09-22T19:07:19.590Z,14.30
2018-09-22T19:09:47.956Z,14.30
2018-09-22T19:12:16.325Z,14.30
2018-09-22T19:14:48.210Z,14.30
2018-09-22T19:17:20.234Z,14.30
2018-09-22T19:19:58.587Z,14.40
2018-09-22T19:22:31.111Z,14.50
2018-09-22T19:25:05.297Z,14.50
2018-09-22T19:27:38.574Z,14.60
2018-09-22T19:30:12.129Z,14.50
2018-09-22T19:32:44.174Z,14.50
2018-09-22T19:35:15.202Z,14.50
2018-09-22T19:37:50.969Z,14.50
2018-09-22T19:41:22.641Z,14.50
2018-09-22T19:44:26.606Z,14.40
2018-09-22T19:46:59.593Z,14.50
2018-09-22T19:49:31.010Z,14.40
2018-09-22T19:52:03.001Z,14.40
2018-09-22T19:54:31.457Z,14.40
2018-09-22T19:56:59.741Z,14.30
2018-09-22T19:59:28.319Z,14.30
2018-09-22T20:01:56.976Z,14.30
2018-09-22T20:04:25.263Z,14.20
2018-09-22T20:06:53.810Z,14.10
2018-09-22T20:09:22.138Z,14.10
2018-09-22T20:11:50.567Z,14.10
2018-09-22T20:14:18.844Z,14.10
2018-09-22T20:16:47.510Z,14.00
2018-09-22T20:19:15.818Z,14.00
2018-09-22T20:21:44.099Z,14.00
2018-09-22T20:24:12.397Z,14.00
2018-09-22T20:26:40.769Z,14.00
2018-09-22T20:29:09.135Z,14.00
2018-09-22T20:31:37.460Z,14.00
2018-09-22T20:34:05.733Z,14.00
2018-09-22T20:36:33.997Z,13.90
2018-09-22T20:39:02.863Z,14.00
2018-09-22T20:41:31.194Z,13.90
2018-09-22T20:43:59.588Z,13.90
2018-09-22T20:46:27.856Z,13.90
2018-09-22T20:48:56.142Z,13.90
2018-09-22T20:51:24.408Z,13.80
2018-09-22T20:53:52.707Z,13.80
2018-09-22T20:56:21.041Z,13.70
2018-09-22T20:58:49.322Z,13.70
2018-09-22T21:01:17.598Z,13.70
2018-09-22T21:03:46.260Z,13.70
2018-09-22T21:06:14.521Z,13.70
2018-09-22T21:08:42.804Z,13.60
2018-09-22T21:11:11.062Z,13.60
2018-09-22T21:13:39.330Z,13.50
2018-09-22T21:16:07.614Z,13.50
2018-09-22T21:18:36.015Z,13.50
2018-09-22T21:21:04.430Z,13.40
2018-09-22T21:23:32.759Z,13.30
2018-09-22T21:26:01.038Z,13.20
2018-09-22T21:28:29.305Z,13.20
2018-09-22T21:30:58.219Z,13.20
2018-09-22T21:33:26.594Z,13.20
2018-09-22T21:35:54.871Z,13.30
2018-09-22T21:38:23.172Z,13.20
2018-09-22T21:40:51.450Z,13.20
2018-09-22T21:43:19.890Z,13.10
2018-09-22T21:45:48.445Z,13.20
2018-09-22T21:48:16.717Z,13.20
2018-09-22T21:50:45.006Z,13.20
2018-09-22T21:53:13.267Z,13.10
2018-09-22T21:55:41.518Z,13.00
2018-09-22T21:58:09.781Z,13.00
2018-09-22T22:00:38.093Z,13.00
2018-09-22T22:03:06.380Z,13.00
2018-09-22T22:05:34.640Z,13.00
2018-09-22T22:08:02.921Z,12.90
2018-09-22T22:10:31.193Z,12.90
2018-09-22T22:12:59.461Z,12.80
2018-09-22T22:15:27.815Z,12.70
2018-09-22T22:17:56.085Z,12.70
2018-09-22T22:20:24.389Z,12.70
2018-09-22T22:22:52.658Z,12.60
2018-09-22T22:25:20.939Z,12.70
2018-09-22T22:27:49.258Z,12.70
2018-09-22T22:30:17.522Z,12.80
2018-09-22T22:32:45.811Z,12.70
2018-09-22T22:35:14.102Z,12.70
2018-09-22T22:37:42.352Z,12.70
2018-09-22T22:40:10.640Z,12.70
2018-09-22T22:42:38.930Z,12.70
2018-09-22T22:45:07.225Z,12.70
2018-09-22T22:47:35.511Z,12.60
2018-09-22T22:50:03.804Z,12.50
2018-09-22T22:52:32.087Z,12.40
2018-09-22T22:55:00.382Z,12.40
2018-09-22T22:57:28.660Z,12.40
2018-09-22T22:59:56.925Z,12.30
2018-09-22T23:02:25.234Z,12.30
2018-09-22T23:04:53.615Z,12.10
2018-09-22T23:07:21.991Z,12.10
2018-09-22T23:09:50.245Z,12.00
2018-09-22T23:12:18.541Z,12.00
2018-09-22T23:14:46.800Z,12.00
2018-09-22T23:17:15.057Z,12.00
2018-09-22T23:19:43.318Z,12.00
2018-09-22T23:22:11.602Z,11.90
2018-09-22T23:24:39.898Z,11.90
2018-09-22T23:27:08.150Z,11.90
2018-09-22T23:29:36.395Z,11.90
2018-09-22T23:32:04.661Z,11.90
2018-09-22T23:34:32.926Z,11.90
2018-09-22T23:37:01.273Z,11.80
2018-09-22T23:39:29.534Z,11.90
2018-09-22T23:41:57.777Z,11.90
2018-09-22T23:44:26.051Z,11.90
2018-09-22T23:46:54.318Z,11.90
2018-09-22T23:49:22.618Z,11.80
2018-09-22T23:51:50.885Z,11.90
2018-09-22T23:54:19.195Z,11.80
2018-09-22T23:56:47.466Z,11.90
2018-09-22T23:59:15.759Z,11.90
